Time;durP1;ratioP1;P1;durP2;ratioP2;P2;SDS_P1;SDS_P2;PMS_P1;PMS_P2;Temp;Humidity;BMP_temperature;BMP_pressure;BME280_temperature;BME280_humidity;BME280_pressure;Samples;Min_cycle;Max_cycle;Signal;HPM_P1;HPM_P2
2023/01/04 00:01:27;;;;;;;9.73;4.45;;;;;;;;;;7387641;19;20079;-75
2023/01/04 00:03:53;;;;;;;7.97;3.45;;;;;;;;;;7386897;19;20003;-74
2023/01/04 00:06:19;;;;;;;8.20;3.55;;;;;;;;;;7389578;19;20006;-75
2023/01/04 00:08:44;;;;;;;10.23;3.60;;;;;;;;;;7389258;19;20070;-74
2023/01/04 00:11:16;;;;;;;7.97;4.03;;;;;;;;;;7391211;19;20003;-74
2023/01/04 00:13:42;;;;;;;11.85;3.97;;;;;;;;;;7389932;19;20096;-75
2023/01/04 00:16:11;;;;;;;6.97;3.30;;;;;;;;;;7391180;19;20081;-74
2023/01/04 00:18:37;;;;;;;9.02;3.55;;;;;;;;;;7389311;19;20100;-75
2023/01/04 00:21:16;;;;;;;9.80;3.67;;;;;;;;;;7390594;19;20026;-75
2023/01/04 00:23:44;;;;;;;8.48;3.70;;;;;;;;;;7389604;19;20070;-74
2023/01/04 00:26:14;;;;;;;10.15;3.92;;;;;;;;;;7390480;19;19995;-74
2023/01/04 00:28:40;;;;;;;10.95;4.32;;;;;;;;;;7388778;19;20342;-76
2023/01/04 00:31:08;;;;;;;9.02;3.53;;;;;;;;;;7390236;19;19999;-74
2023/01/04 00:33:33;;;;;;;9.10;4.28;;;;;;;;;;7388780;19;19999;-74
2023/01/04 00:36:04;;;;;;;8.98;3.78;;;;;;;;;;7390164;19;20013;-75
2023/01/04 00:38:29;;;;;;;10.90;4.43;;;;;;;;;;7388725;19;20062;-75
2023/01/04 00:40:54;;;;;;;9.98;3.97;;;;;;;;;;7390244;19;20075;-75
2023/01/04 00:43:20;;;;;;;9.60;4.25;;;;;;;;;;7385172;19;19998;-75
2023/01/04 00:45:45;;;;;;;8.70;4.53;;;;;;;;;;7390436;19;19995;-74
2023/01/04 00:48:10;;;;;;;8.27;3.80;;;;;;;;;;7388191;19;20404;-75
2023/01/04 00:50:36;;;;;;;11.13;4.45;;;;;;;;;;7390124;19;20486;-76
2023/01/04 00:53:01;;;;;;;7.32;3.85;;;;;;;;;;7388830;19;20011;-75
2023/01/04 00:55:26;;;;;;;8.05;4.15;;;;;;;;;;7390112;19;19999;-75
2023/01/04 00:57:51;;;;;;;10.27;4.32;;;;;;;;;;7388217;19;20009;-76
2023/01/04 01:00:17;;;;;;;10.95;5.13;;;;;;;;;;7389686;19;20019;-75
2023/01/04 01:02:42;;;;;;;15.10;4.68;;;;;;;;;;7386724;19;19991;-75
2023/01/04 01:05:08;;;;;;;13.23;4.53;;;;;;;;;;7389103;19;20007;-75
2023/01/04 01:07:33;;;;;;;12.55;4.85;;;;;;;;;;7388300;19;20138;-75
2023/01/04 01:09:59;;;;;;;9.80;4.85;;;;;;;;;;7389364;19;20005;-74
2023/01/04 01:12:24;;;;;;;10.45;4.45;;;;;;;;;;7393111;19;20468;-75
2023/01/04 01:14:49;;;;;;;8.73;4.80;;;;;;;;;;7388348;19;20340;-75
2023/01/04 01:17:15;;;;;;;11.13;4.82;;;;;;;;;;7389429;19;20066;-73
2023/01/04 01:19:40;;;;;;;8.82;4.40;;;;;;;;;;7396135;19;20015;-76
2023/01/04 01:22:05;;;;;;;11.05;4.65;;;;;;;;;;7395325;19;19994;-75
2023/01/04 01:24:31;;;;;;;14.10;4.82;;;;;;;;;;7394773;19;19998;-75
2023/01/04 01:26:56;;;;;;;9.00;4.63;;;;;;;;;;7393514;19;19999;-74
2023/01/04 01:29:22;;;;;;;11.02;5.13;;;;;;;;;;7397532;19;19995;-74
2023/01/04 01:31:47;;;;;;;12.00;5.13;;;;;;;;;;7394152;19;20017;-74
2023/01/04 01:34:13;;;;;;;10.27;4.90;;;;;;;;;;7394482;19;20054;-75
2023/01/04 01:36:38;;;;;;;11.25;5.43;;;;;;;;;;7395598;19;20002;-75
2023/01/04 01:39:05;;;;;;;9.90;4.45;;;;;;;;;;7400228;19;19998;-74
2023/01/04 01:41:33;;;;;;;11.93;5.00;;;;;;;;;;7394991;19;20002;-76
2023/01/04 01:44:01;;;;;;;10.50;4.78;;;;;;;;;;7392999;19;20058;-75
2023/01/04 01:46:40;;;;;;;12.45;5.65;;;;;;;;;;7393538;19;20002;-75
2023/01/04 01:49:10;;;;;;;17.30;5.15;;;;;;;;;;7395716;19;20003;-75
2023/01/04 01:51:35;;;;;;;12.18;5.15;;;;;;;;;;7395592;19;19998;-74
2023/01/04 01:54:06;;;;;;;10.98;5.30;;;;;;;;;;7393959;19;20476;-75
2023/01/04 01:56:32;;;;;;;;;;;;;;;;;;7396989;19;20010;-75
2023/01/04 01:58:58;;;;;;;9.55;4.53;;;;;;;;;;7395041;19;19915;-75
2023/01/04 02:01:24;;;;;;;9.38;4.22;;;;;;;;;;7394846;19;20487;-75
2023/01/04 02:03:50;;;;;;;10.82;5.13;;;;;;;;;;7394708;19;20003;-75
2023/01/04 02:06:21;;;;;;;10.25;5.10;;;;;;;;;;7394944;19;20019;-75
2023/01/04 02:08:47;;;;;;;12.93;5.90;;;;;;;;;;7392518;19;20010;-75
2023/01/04 02:11:13;;;;;;;7.75;4.13;;;;;;;;;;7393654;19;20041;-74
2023/01/04 02:17:01;;;;;;;14.23;5.45;;;;;;;;;;7395189;19;20006;-75
2023/01/04 02:19:32;;;;;;;10.18;5.30;;;;;;;;;;7394624;19;20002;-75
2023/01/04 02:22:22;;;;;;;13.88;5.40;;;;;;;;;;7393561;19;20006;-74
2023/01/04 02:25:00;;;;;;;10.25;4.70;;;;;;;;;;7393275;19;20007;-74
2023/01/04 02:27:51;;;;;;;10.68;4.97;;;;;;;;;;7392942;19;20007;-74
2023/01/04 02:30:51;;;;;;;10.40;5.43;;;;;;;;;;7393956;19;20002;-74
2023/01/04 02:33:52;;;;;;;10.93;5.13;;;;;;;;;;7390199;19;20002;-75
2023/01/04 02:36:29;;;;;;;12.38;4.72;;;;;;;;;;7390390;19;20054;-75
2023/01/04 02:39:33;;;;;;;10.23;4.43;;;;;;;;;;7392986;19;20486;-75
2023/01/04 02:42:08;;;;;;;9.27;4.20;;;;;;;;;;7392149;19;20002;-75
2023/01/04 02:44:56;;;;;;;9.95;4.60;;;;;;;;;;7392334;19;20543;-75
2023/01/04 02:50:31;;;;;;;7.88;3.75;;;;;;;;;;7394495;19;20010;-73
2023/01/04 02:53:11;;;;;;;13.02;4.15;;;;;;;;;;7392703;19;20002;-74
2023/01/04 02:55:59;;;;;;;7.93;4.03;;;;;;;;;;7392228;19;20449;-74
2023/01/04 02:58:53;;;;;;;10.45;3.90;;;;;;;;;;7390889;19;20018;-74
2023/01/04 03:07:49;;;;;;;9.07;3.92;;;;;;;;;;7392000;19;20066;-75
2023/01/04 03:10:20;;;;;;;11.70;4.35;;;;;;;;;;7392790;19;20003;-74
2023/01/04 03:12:51;;;;;;;7.97;3.75;;;;;;;;;;7393818;19;20015;-75
2023/01/04 03:15:30;;;;;;;8.50;4.07;;;;;;;;;;7398475;19;20005;-75
2023/01/04 03:18:08;;;;;;;7.25;3.70;;;;;;;;;;7392877;19;20005;-74
2023/01/04 03:20:33;;;;;;;12.13;3.78;;;;;;;;;;7393324;19;20013;-75
2023/01/04 03:37:13;;;;;;;7.57;3.70;;;;;;;;;;7391893;19;20036;-74
2023/01/04 03:48:42;;;;;;;6.75;3.83;;;;;;;;;;7394940;19;20354;-76
2023/01/04 03:51:17;;;;;;;11.95;4.25;;;;;;;;;;7391785;19;20062;-75
2023/01/04 03:54:03;;;;;;;7.75;3.67;;;;;;;;;;7390190;19;20003;-75
2023/01/04 03:56:30;;;;;;;9.48;4.10;;;;;;;;;;7396573;19;19994;-75
2023/01/04 03:58:55;;;;;;;10.10;4.45;;;;;;;;;;7396557;19;20019;-76
2023/01/04 04:01:24;;;;;;;9.15;4.28;;;;;;;;;;7396478;19;20362;-74
2023/01/04 04:09:17;;;;;;;12.63;4.60;;;;;;;;;;7404888;19;20357;-76
2023/01/04 04:11:42;;;;;;;9.73;4.82;;;;;;;;;;7402968;19;19999;-76
2023/01/04 04:14:08;;;;;;;11.27;4.22;;;;;;;;;;7397549;19;20485;-75
2023/01/04 04:16:33;;;;;;;13.77;5.10;;;;;;;;;;7395948;19;19991;-76
2023/01/04 04:18:58;;;;;;;9.02;4.88;;;;;;;;;;7398998;19;20016;-77
2023/01/04 04:21:24;;;;;;;11.10;5.03;;;;;;;;;;7396341;19;20046;-77
2023/01/04 04:23:49;;;;;;;12.45;4.90;;;;;;;;;;7399083;19;20003;-77
2023/01/04 04:26:15;;;;;;;9.70;5.28;;;;;;;;;;7407389;19;19995;-76
2023/01/04 04:28:41;;;;;;;12.68;5.45;;;;;;;;;;7404713;19;20011;-76
2023/01/04 04:31:07;;;;;;;12.38;5.57;;;;;;;;;;7398980;19;20377;-76
2023/01/04 04:33:32;;;;;;;12.55;5.78;;;;;;;;;;7395412;19;20002;-75
2023/01/04 04:35:57;;;;;;;12.85;5.57;;;;;;;;;;7399275;19;20370;-74
2023/01/04 04:38:23;;;;;;;11.02;5.10;;;;;;;;;;7395340;19;20132;-79
2023/01/04 04:43:33;;;;;;;12.55;6.20;;;;;;;;;;7402955;19;20006;-76
2023/01/04 04:46:00;;;;;;;13.00;6.35;;;;;;;;;;7399528;19;20007;-76
2023/01/04 04:48:25;;;;;;;13.10;5.25;;;;;;;;;;7403997;19;19999;-77
2023/01/04 04:50:51;;;;;;;12.63;6.20;;;;;;;;;;7405233;19;20010;-77
2023/01/04 04:53:16;;;;;;;11.90;5.80;;;;;;;;;;7411243;19;20460;-74
2023/01/04 04:55:41;;;;;;;13.15;6.63;;;;;;;;;;7412483;19;19991;-74
2023/01/04 04:58:07;;;;;;;10.05;5.63;;;;;;;;;;7410262;19;20015;-75
2023/01/04 05:00:32;;;;;;;10.90;5.88;;;;;;;;;;7406230;19;19995;-75
2023/01/04 05:02:58;;;;;;;12.60;6.40;;;;;;;;;;7404621;19;19994;-75
2023/01/04 05:05:23;;;;;;;14.40;6.55;;;;;;;;;;7413912;19;19999;-76
2023/01/04 05:07:49;;;;;;;13.25;5.85;;;;;;;;;;7412585;19;20024;-76
2023/01/04 05:10:14;;;;;;;10.77;5.80;;;;;;;;;;7415795;19;19991;-75
2023/01/04 05:15:32;;;;;;;8.18;4.22;;;;;;;;;;7418258;19;20045;-75
2023/01/04 05:17:57;;;;;;;10.77;5.25;;;;;;;;;;7412867;19;20007;-75
2023/01/04 05:20:23;;;;;;;11.30;5.72;;;;;;;;;;7413880;19;20023;-74
2023/01/04 05:22:48;;;;;;;8.43;4.78;;;;;;;;;;7409542;19;20066;-74
2023/01/04 05:25:14;;;;;;;7.95;4.32;;;;;;;;;;7409011;19;19998;-75
2023/01/04 05:27:39;;;;;;;8.27;4.47;;;;;;;;;;7396203;19;20082;-74
2023/01/04 05:32:49;;;;;;;9.70;4.80;;;;;;;;;;7396849;19;20026;-76
2023/01/04 05:35:15;;;;;;;7.47;4.50;;;;;;;;;;7397686;19;20434;-74
2023/01/04 05:37:41;;;;;;;8.38;4.20;;;;;;;;;;7393977;19;20058;-76
2023/01/04 05:40:07;;;;;;;9.82;5.00;;;;;;;;;;7396756;19;20002;-75
2023/01/04 05:42:32;;;;;;;8.75;4.15;;;;;;;;;;7392829;19;20062;-76
2023/01/04 05:44:58;;;;;;;8.00;4.68;;;;;;;;;;7396379;19;20002;-75
2023/01/04 05:47:25;;;;;;;10.15;4.90;;;;;;;;;;7394811;19;20019;-75
2023/01/04 05:49:51;;;;;;;8.60;5.63;;;;;;;;;;7396421;19;19990;-76
2023/01/04 05:52:16;;;;;;;11.93;5.63;;;;;;;;;;7395202;19;20015;-74
2023/01/04 05:54:41;;;;;;;10.32;5.82;;;;;;;;;;7397800;19;19991;-77
2023/01/04 05:57:07;;;;;;;10.57;5.50;;;;;;;;;;7394985;19;19990;-74
2023/01/04 05:59:37;;;;;;;11.93;5.85;;;;;;;;;;7394962;19;19987;-76
2023/01/04 06:02:02;;;;;;;11.18;6.35;;;;;;;;;;7393310;19;20079;-75
2023/01/04 06:04:28;;;;;;;11.07;6.38;;;;;;;;;;7391973;19;20003;-75
2023/01/04 06:06:53;;;;;;;11.60;6.07;;;;;;;;;;7394881;19;20002;-76
2023/01/04 06:09:18;;;;;;;11.43;6.05;;;;;;;;;;7394411;19;19999;-76
2023/01/04 06:11:44;;;;;;;13.90;7.10;;;;;;;;;;7395121;19;20019;-75
2023/01/04 06:14:09;;;;;;;12.13;6.22;;;;;;;;;;7394267;19;20015;-76
2023/01/04 06:16:34;;;;;;;12.93;6.60;;;;;;;;;;7395188;19;20046;-76
2023/01/04 06:19:00;;;;;;;12.68;6.80;;;;;;;;;;7395097;19;19994;-76
2023/01/04 06:21:25;;;;;;;14.88;6.93;;;;;;;;;;7394457;19;19991;-76
2023/01/04 06:23:51;;;;;;;14.38;7.30;;;;;;;;;;7393963;19;20031;-75
2023/01/04 06:26:17;;;;;;;12.98;6.57;;;;;;;;;;7393925;19;20480;-76
2023/01/04 06:28:42;;;;;;;13.18;6.90;;;;;;;;;;7392961;19;20003;-76
2023/01/04 06:31:09;;;;;;;15.23;6.70;;;;;;;;;;7394850;19;20362;-76
2023/01/04 06:33:34;;;;;;;30.08;15.50;;;;;;;;;;7393611;19;19990;-76
2023/01/04 06:36:00;;;;;;;38.10;19.35;;;;;;;;;;7394207;19;20016;-75
2023/01/04 06:38:26;;;;;;;38.03;20.13;;;;;;;;;;7392605;19;20006;-74
2023/01/04 06:40:51;;;;;;;21.73;11.48;;;;;;;;;;7394453;19;20002;-76
2023/01/04 06:43:16;;;;;;;21.20;12.93;;;;;;;;;;7393700;19;20066;-74
2023/01/04 06:45:42;;;;;;;19.25;12.00;;;;;;;;;;7397373;19;19982;-74
2023/01/04 06:48:08;;;;;;;22.67;11.43;;;;;;;;;;7394703;19;20447;-75
2023/01/04 06:50:33;;;;;;;19.20;10.85;;;;;;;;;;7397433;19;19995;-78
2023/01/04 06:52:59;;;;;;;17.00;8.45;;;;;;;;;;7394696;19;20007;-75
2023/01/04 06:55:24;;;;;;;11.50;6.50;;;;;;;;;;7397646;19;19987;-76
2023/01/04 06:57:50;;;;;;;13.65;7.90;;;;;;;;;;7394992;19;19995;-76
2023/01/04 07:00:15;;;;;;;12.07;5.95;;;;;;;;;;7397477;19;19995;-75
2023/01/04 07:02:41;;;;;;;13.23;6.85;;;;;;;;;;7392872;19;20019;-76
2023/01/04 07:05:06;;;;;;;14.50;6.50;;;;;;;;;;7397326;19;20103;-75
2023/01/04 07:07:33;;;;;;;9.52;5.45;;;;;;;;;;7395468;19;20448;-75
2023/01/04 07:09:58;;;;;;;12.13;6.13;;;;;;;;;;7397271;19;20002;-75
2023/01/04 07:12:24;;;;;;;11.90;5.80;;;;;;;;;;7396521;19;20002;-75
2023/01/04 07:14:49;;;;;;;11.77;6.20;;;;;;;;;;7395974;19;20006;-76
2023/01/04 07:17:15;;;;;;;10.27;5.32;;;;;;;;;;7393756;19;19998;-75
2023/01/04 07:19:40;;;;;;;8.95;4.70;;;;;;;;;;7391517;19;20028;-76
2023/01/04 07:22:05;;;;;;;11.30;5.28;;;;;;;;;;7394316;19;19987;-75
2023/01/04 07:24:31;;;;;;;8.00;4.70;;;;;;;;;;7391229;19;20011;-75
2023/01/04 07:26:58;;;;;;;10.88;4.18;;;;;;;;;;7390852;19;20089;-74
2023/01/04 07:29:24;;;;;;;7.22;3.78;;;;;;;;;;7393284;19;20016;-73
2023/01/04 07:31:51;;;;;;;6.78;3.53;;;;;;;;;;7394985;19;20453;-76
2023/01/04 07:34:18;;;;;;;5.72;3.05;;;;;;;;;;7384685;19;20009;-76
2023/01/04 07:36:43;;;;;;;7.40;2.88;;;;;;;;;;7390736;19;20006;-76
2023/01/04 07:39:11;;;;;;;6.03;2.55;;;;;;;;;;7391678;19;20725;-76
2023/01/04 07:41:40;;;;;;;8.05;2.33;;;;;;;;;;7390342;19;20003;-76
2023/01/04 07:44:06;;;;;;;4.00;2.10;;;;;;;;;;7388346;19;20062;-76
2023/01/04 07:46:37;;;;;;;2.35;1.52;;;;;;;;;;7387405;19;20010;-76
2023/01/04 07:49:03;;;;;;;4.63;1.65;;;;;;;;;;7390087;19;19998;-76
2023/01/04 07:51:30;;;;;;;2.80;1.65;;;;;;;;;;7390303;19;20318;-76
2023/01/04 07:53:55;;;;;;;2.45;1.58;;;;;;;;;;7390623;19;20009;-77
2023/01/04 07:56:20;;;;;;;5.68;1.95;;;;;;;;;;7391132;19;20635;-73
2023/01/04 07:58:46;;;;;;;4.38;2.00;;;;;;;;;;7386047;19;20011;-76
2023/01/04 08:01:16;;;;;;;3.38;1.70;;;;;;;;;;7385426;19;20427;-75
2023/01/04 08:03:44;;;;;;;3.33;1.55;;;;;;;;;;7381086;19;20066;-74
2023/01/04 08:06:10;;;;;;;2.60;1.55;;;;;;;;;;7385292;19;20010;-74
2023/01/04 08:08:39;;;;;;;3.95;1.90;;;;;;;;;;7390524;19;19994;-75
2023/01/04 08:11:11;;;;;;;2.67;1.60;;;;;;;;;;7389890;19;20001;-74
2023/01/04 08:13:36;;;;;;;2.33;1.50;;;;;;;;;;7386762;19;20401;-75
2023/01/04 08:16:02;;;;;;;2.33;1.58;;;;;;;;;;7386982;19;20016;-75
2023/01/04 08:18:27;;;;;;;3.20;1.60;;;;;;;;;;7386992;19;20223;-75
2023/01/04 08:21:07;;;;;;;4.38;1.95;;;;;;;;;;7386527;19;19992;-75
2023/01/04 08:23:34;;;;;;;5.20;1.88;;;;;;;;;;7386429;19;20003;-75
2023/01/04 08:26:04;;;;;;;2.88;1.52;;;;;;;;;;7388835;19;20679;-75
2023/01/04 08:28:30;;;;;;;3.38;1.70;;;;;;;;;;7396617;19;20002;-74
2023/01/04 08:30:55;;;;;;;3.17;1.70;;;;;;;;;;7398848;19;19991;-76
2023/01/04 08:33:21;;;;;;;5.18;2.00;;;;;;;;;;7394763;19;20480;-75
2023/01/04 08:35:46;;;;;;;4.45;1.75;;;;;;;;;;7398527;19;20002;-73
2023/01/04 08:38:11;;;;;;;3.72;1.80;;;;;;;;;;7396305;19;20001;-75
2023/01/04 08:40:37;;;;;;;3.25;1.70;;;;;;;;;;7399115;19;20215;-76
2023/01/04 08:43:02;;;;;;;4.45;1.90;;;;;;;;;;7394242;19;20003;-76
2023/01/04 08:45:28;;;;;;;3.97;1.80;;;;;;;;;;7400363;19;20002;-77
2023/01/04 08:47:53;;;;;;;3.72;1.65;;;;;;;;;;7394752;19;20003;-77
2023/01/04 08:50:20;;;;;;;4.47;1.75;;;;;;;;;;7399060;19;19999;-77
2023/01/04 08:52:45;;;;;;;4.85;1.80;;;;;;;;;;7394038;19;19998;-77
2023/01/04 08:55:11;;;;;;;3.15;1.63;;;;;;;;;;7399129;19;20064;-76
2023/01/04 08:57:36;;;;;;;4.97;1.73;;;;;;;;;;7398213;19;19998;-76
2023/01/04 09:00:03;;;;;;;3.20;2.00;;;;;;;;;;7399534;19;20003;-74
2023/01/04 09:02:28;;;;;;;2.97;1.50;;;;;;;;;;7395749;19;20001;-75
2023/01/04 09:04:58;;;;;;;2.45;1.48;;;;;;;;;;7397406;19;20378;-74
2023/01/04 09:07:24;;;;;;;3.00;1.70;;;;;;;;;;7395313;19;20024;-74
2023/01/04 09:09:49;;;;;;;4.60;1.83;;;;;;;;;;7395687;19;19999;-74
2023/01/04 09:12:15;;;;;;;2.70;1.50;;;;;;;;;;7396463;19;20070;-74
2023/01/04 09:14:40;;;;;;;3.22;1.80;;;;;;;;;;7394283;19;19987;-74
2023/01/04 09:17:05;;;;;;;5.03;1.67;;;;;;;;;;7395119;19;19986;-75
2023/01/04 09:19:31;;;;;;;3.17;1.60;;;;;;;;;;7397538;19;19991;-74
2023/01/04 09:21:56;;;;;;;6.05;2.03;;;;;;;;;;7393857;19;20470;-74
2023/01/04 09:24:22;;;;;;;3.28;1.65;;;;;;;;;;7393390;19;20003;-74
2023/01/04 09:26:47;;;;;;;2.70;1.50;;;;;;;;;;7393877;19;19994;-74
2023/01/04 09:29:13;;;;;;;3.20;1.55;;;;;;;;;;7390643;19;19995;-73
2023/01/04 09:31:38;;;;;;;4.28;1.70;;;;;;;;;;7395981;19;20101;-74
2023/01/04 09:34:03;;;;;;;2.08;1.50;;;;;;;;;;7394432;19;20507;-74
2023/01/04 09:36:29;;;;;;;3.85;1.67;;;;;;;;;;7396574;19;20019;-76
2023/01/04 09:38:54;;;;;;;6.15;1.80;;;;;;;;;;7391048;19;20066;-72
2023/01/04 09:41:26;;;;;;;2.78;1.50;;;;;;;;;;7395964;19;19994;-75
2023/01/04 09:43:51;;;;;;;3.80;1.88;;;;;;;;;;7390472;19;20024;-74
2023/01/04 09:46:43;;;;;;;2.58;1.63;;;;;;;;;;7395545;19;19999;-75
2023/01/04 09:49:29;;;;;;;5.28;1.65;;;;;;;;;;7392481;19;20476;-74
2023/01/04 09:52:02;;;;;;;5.50;1.67;;;;;;;;;;7394624;19;20011;-75
2023/01/04 09:54:59;;;;;;;4.15;1.88;;;;;;;;;;7394535;19;20082;-75
2023/01/04 09:57:29;;;;;;;3.78;1.60;;;;;;;;;;7392207;19;20005;-74
2023/01/04 10:00:01;;;;;;;5.15;1.83;;;;;;;;;;7392692;19;20027;-74
2023/01/04 10:02:40;;;;;;;2.88;1.90;;;;;;;;;;7394159;19;20006;-75
2023/01/04 10:05:07;;;;;;;3.75;1.92;;;;;;;;;;7392832;19;19998;-76
2023/01/04 10:07:33;;;;;;;2.25;1.48;;;;;;;;;;7391143;19;20006;-74
2023/01/04 10:09:59;;;;;;;3.35;1.70;;;;;;;;;;7393401;19;20002;-76
2023/01/04 10:12:31;;;;;;;2.75;1.70;;;;;;;;;;7394374;19;20006;-76
2023/01/04 10:15:04;;;;;;;;;;;;;;;;;;7394680;19;20006;-75
2023/01/04 10:17:51;;;;;;;5.47;2.22;;;;;;;;;;7392796;19;20619;-75
2023/01/04 10:20:25;;;;;;;2.58;1.83;;;;;;;;;;7394786;19;20101;-75
2023/01/04 10:23:09;;;;;;;5.63;3.20;;;;;;;;;;7391836;19;19999;-76
2023/01/04 10:25:54;;;;;;;3.85;2.35;;;;;;;;;;7393467;19;19995;-76
2023/01/04 10:28:28;;;;;;;3.17;1.58;;;;;;;;;;7391695;19;20002;-75
2023/01/04 10:31:17;;;;;;;3.42;1.70;;;;;;;;;;7395278;19;20002;-76
2023/01/04 10:33:51;;;;;;;3.55;1.70;;;;;;;;;;7393030;19;20016;-75
2023/01/04 10:36:19;;;;;;;4.90;2.03;;;;;;;;;;7394053;19;20407;-77
2023/01/04 10:38:45;;;;;;;4.40;2.10;;;;;;;;;;7393340;19;20452;-76
2023/01/04 10:41:20;;;;;;;2.35;1.45;;;;;;;;;;7393760;19;20005;-76
2023/01/04 10:44:11;;;;;;;2.75;1.40;;;;;;;;;;7390462;19;20692;-76
2023/01/04 10:47:07;;;;;;;4.28;1.60;;;;;;;;;;7392910;19;19990;-76
2023/01/04 10:49:43;;;;;;;4.05;1.52;;;;;;;;;;7393592;19;20003;-76
2023/01/04 10:52:17;;;;;;;3.67;2.10;;;;;;;;;;7394331;19;20037;-78
2023/01/04 10:54:48;;;;;;;4.95;1.92;;;;;;;;;;7390634;19;20005;-76
2023/01/04 10:57:39;;;;;;;3.75;1.75;;;;;;;;;;7392370;19;20450;-75
2023/01/04 11:00:16;;;;;;;3.47;1.80;;;;;;;;;;7389332;19;20011;-76
2023/01/04 11:02:41;;;;;;;4.07;1.60;;;;;;;;;;7387090;19;20336;-74
2023/01/04 11:05:16;;;;;;;2.85;1.60;;;;;;;;;;7389090;19;19995;-76
2023/01/04 11:07:51;;;;;;;3.92;1.60;;;;;;;;;;7389544;19;20062;-77
2023/01/04 11:10:51;;;;;;;3.67;1.60;;;;;;;;;;7387793;19;20002;-77
2023/01/04 11:13:17;;;;;;;4.10;1.52;;;;;;;;;;7382597;19;20877;-77
2023/01/04 11:15:44;;;;;;;3.72;1.70;;;;;;;;;;7388510;19;20097;-75
2023/01/04 11:18:12;;;;;;;3.00;1.67;;;;;;;;;;7388814;19;20004;-76
2023/01/04 11:20:38;;;;;;;2.95;1.70;;;;;;;;;;7392074;19;19998;-77
2023/01/04 11:23:09;;;;;;;5.20;2.45;;;;;;;;;;7391323;19;20016;-74
2023/01/04 11:25:41;;;;;;;3.92;1.50;;;;;;;;;;7393241;19;20066;-75
2023/01/04 11:28:14;;;;;;;3.83;1.83;;;;;;;;;;7392070;19;20456;-77
2023/01/04 11:31:09;;;;;;;4.50;1.80;;;;;;;;;;7393052;19;20438;-76
2023/01/04 11:34:13;;;;;;;6.05;2.00;;;;;;;;;;7389913;19;20349;-76
2023/01/04 11:36:41;;;;;;;2.72;1.73;;;;;;;;;;7387988;19;20002;-76
2023/01/04 11:39:18;;;;;;;3.80;1.80;;;;;;;;;;7384167;19;20383;-72
2023/01/04 11:42:04;;;;;;;6.28;2.20;;;;;;;;;;7389598;19;20401;-75
2023/01/04 11:44:32;;;;;;;2.42;1.55;;;;;;;;;;7385982;19;20002;-74
2023/01/04 11:47:06;;;;;;;3.08;1.80;;;;;;;;;;7386969;19;20010;-73
2023/01/04 11:49:36;;;;;;;7.03;1.95;;;;;;;;;;7389042;19;20003;-77
2023/01/04 11:52:03;;;;;;;3.33;1.63;;;;;;;;;;7377617;19;20018;-77
2023/01/04 11:54:29;;;;;;;5.65;1.70;;;;;;;;;;7382371;19;20016;-74
2023/01/04 11:56:58;;;;;;;3.35;1.70;;;;;;;;;;7383921;19;20014;-75
2023/01/04 11:59:24;;;;;;;3.35;1.60;;;;;;;;;;7386015;19;20006;-75
2023/01/04 12:01:51;;;;;;;3.50;1.50;;;;;;;;;;7380333;19;20031;-75
2023/01/04 12:04:21;;;;;;;4.50;1.80;;;;;;;;;;7383522;19;19998;-75
2023/01/04 12:07:30;;;;;;;1.92;1.50;;;;;;;;;;7381527;19;20007;-74
2023/01/04 12:10:01;;;;;;;3.78;2.03;;;;;;;;;;7386170;19;20003;-75
2023/01/04 12:12:32;;;;;;;2.65;1.60;;;;;;;;;;7385577;19;20045;-75
2023/01/04 12:15:04;;;;;;;3.38;1.45;;;;;;;;;;7385933;19;20023;-75
2023/01/04 12:17:41;;;;;;;3.40;1.60;;;;;;;;;;7385292;19;20003;-76
2023/01/04 12:20:14;;;;;;;4.32;1.30;;;;;;;;;;7383706;19;20452;-75
2023/01/04 12:22:40;;;;;;;3.17;1.58;;;;;;;;;;7381362;19;20013;-76
2023/01/04 12:25:30;;;;;;;2.22;1.45;;;;;;;;;;7384913;19;19994;-75
2023/01/04 12:27:56;;;;;;;5.13;1.70;;;;;;;;;;7386408;19;20024;-76
2023/01/04 12:30:44;;;;;;;3.40;1.60;;;;;;;;;;7386891;19;19995;-75
2023/01/04 12:33:28;;;;;;;5.43;1.75;;;;;;;;;;7383773;19;20372;-77
2023/01/04 12:36:13;;;;;;;6.25;2.15;;;;;;;;;;7385036;19;20002;-78
2023/01/04 12:38:53;;;;;;;1.55;1.38;;;;;;;;;;7382917;19;20027;-76
2023/01/04 12:41:20;;;;;;;1.73;1.50;;;;;;;;;;7387226;19;20016;-75
2023/01/04 12:43:48;;;;;;;4.25;1.77;;;;;;;;;;7381235;19;20002;-75
2023/01/04 12:49:24;;;;;;;2.42;1.73;;;;;;;;;;7384469;19;20027;-76
2023/01/04 12:52:12;;;;;;;3.75;1.95;;;;;;;;;;7385260;19;20488;-75
2023/01/04 12:54:45;;;;;;;6.82;1.90;;;;;;;;;;7379429;19;19999;-74
2023/01/04 12:57:17;;;;;;;3.63;1.80;;;;;;;;;;7385776;19;20010;-75
2023/01/04 13:00:02;;;;;;;2.88;1.90;;;;;;;;;;7380512;19;20006;-76
2023/01/04 13:03:00;;;;;;;5.78;2.13;;;;;;;;;;7383213;19;20058;-75
2023/01/04 13:05:32;;;;;;;4.13;2.10;;;;;;;;;;7384915;19;19994;-76
2023/01/04 13:07:59;;;;;;;5.88;2.20;;;;;;;;;;7384443;19;20003;-75
2023/01/04 13:10:37;;;;;;;3.08;1.90;;;;;;;;;;7386111;19;20467;-76
2023/01/04 13:13:24;;;;;;;4.72;1.77;;;;;;;;;;7387993;19;20001;-76
2023/01/04 13:16:26;;;;;;;3.78;1.70;;;;;;;;;;7392790;19;20002;-78
2023/01/04 13:18:54;;;;;;;3.67;2.13;;;;;;;;;;7394901;19;19999;-77
2023/01/04 13:21:27;;;;;;;4.55;2.05;;;;;;;;;;7391339;19;20029;-80
2023/01/04 13:24:00;;;;;;;3.50;2.03;;;;;;;;;;7388787;19;20030;-78
2023/01/04 13:26:26;;;;;;;5.47;2.17;;;;;;;;;;7391790;19;20003;-80
2023/01/04 13:29:14;;;;;;;3.63;2.08;;;;;;;;;;7389353;19;20002;-79
2023/01/04 13:32:00;;;;;;;5.97;2.22;;;;;;;;;;7390537;19;20002;-78
2023/01/04 13:34:36;;;;;;;5.60;2.28;;;;;;;;;;7389375;19;19995;-78
2023/01/04 13:37:10;;;;;;;2.58;1.92;;;;;;;;;;7391311;19;20002;-78
2023/01/04 13:39:41;;;;;;;3.80;1.90;;;;;;;;;;7393125;19;20018;-80
2023/01/04 13:42:24;;;;;;;3.45;2.08;;;;;;;;;;7388368;19;20031;-76
2023/01/04 13:45:03;;;;;;;3.55;2.10;;;;;;;;;;7402630;19;20046;-76
2023/01/04 13:47:33;;;;;;;3.30;1.70;;;;;;;;;;7413618;19;20019;-75
2023/01/04 13:49:58;;;;;;;2.55;1.70;;;;;;;;;;7413863;19;20014;-75
2023/01/04 13:52:26;;;;;;;3.05;1.80;;;;;;;;;;7402916;19;20007;-76
2023/01/04 13:55:09;;;;;;;2.33;1.60;;;;;;;;;;7392238;19;20010;-78
2023/01/04 13:57:35;;;;;;;3.05;1.60;;;;;;;;;;7390168;19;20058;-77
2023/01/04 14:00:04;;;;;;;4.35;1.50;;;;;;;;;;7324367;19;19998;-75
2023/01/04 14:02:30;;;;;;;1.45;1.30;;;;;;;;;;7387593;19;20009;-78
2023/01/04 14:04:55;;;;;;;4.75;1.70;;;;;;;;;;7388292;19;20036;-75
2023/01/04 14:07:22;;;;;;;2.65;1.70;;;;;;;;;;7392568;19;19995;-76
2023/01/04 14:09:52;;;;;;;2.58;1.70;;;;;;;;;;7391366;19;20006;-75
2023/01/04 14:12:21;;;;;;;2.55;1.45;;;;;;;;;;7387545;19;20002;-75
2023/01/04 14:15:16;;;;;;;2.03;1.50;;;;;;;;;;7383294;19;19999;-75
2023/01/04 14:17:51;;;;;;;2.47;1.40;;;;;;;;;;7385153;19;20039;-76
2023/01/04 14:20:19;;;;;;;2.58;1.50;;;;;;;;;;7387502;19;20398;-76
2023/01/04 14:22:44;;;;;;;2.35;1.48;;;;;;;;;;7386363;19;20278;-75
2023/01/04 14:25:47;;;;;;;1.33;1.23;;;;;;;;;;7386953;19;20018;-75
2023/01/04 14:28:21;;;;;;;2.35;1.30;;;;;;;;;;7391076;19;20002;-75
2023/01/04 14:30:52;;;;;;;2.40;1.42;;;;;;;;;;7388280;19;20330;-75
2023/01/04 14:33:18;;;;;;;1.88;1.40;;;;;;;;;;7387402;19;20002;-69
2023/01/04 14:35:45;;;;;;;2.95;1.70;;;;;;;;;;7386767;19;20012;-76
2023/01/04 14:38:14;;;;;;;6.22;1.65;;;;;;;;;;7389940;19;20003;-75
2023/01/04 14:40:40;;;;;;;3.95;1.58;;;;;;;;;;7387642;19;20006;-73
2023/01/04 14:43:44;;;;;;;2.97;1.48;;;;;;;;;;7386011;19;20013;-75
2023/01/04 14:46:09;;;;;;;2.53;1.35;;;;;;;;;;7390613;19;20464;-75
2023/01/04 14:48:35;;;;;;;3.08;1.50;;;;;;;;;;7386586;19;19998;-74
2023/01/04 14:51:00;;;;;;;1.40;1.30;;;;;;;;;;7387500;19;20002;-77
2023/01/04 14:53:26;;;;;;;2.78;1.48;;;;;;;;;;7388658;19;20027;-75
2023/01/04 14:55:53;;;;;;;1.48;1.30;;;;;;;;;;7386932;19;20002;-77
2023/01/04 14:58:19;;;;;;;2.25;1.50;;;;;;;;;;7386944;19;20024;-77
2023/01/04 15:00:44;;;;;;;5.38;1.40;;;;;;;;;;7388348;19;20520;-75
2023/01/04 15:03:10;;;;;;;2.17;1.40;;;;;;;;;;7385002;19;20011;-75
2023/01/04 15:05:35;;;;;;;3.28;1.40;;;;;;;;;;7387297;19;20011;-76
2023/01/04 15:08:01;;;;;;;2.75;1.50;;;;;;;;;;7389766;19;20006;-76
2023/01/04 15:10:28;;;;;;;1.50;1.30;;;;;;;;;;7389485;19;19990;-77
2023/01/04 15:12:57;;;;;;;1.63;1.30;;;;;;;;;;7386189;19;20002;-77
2023/01/04 15:15:23;;;;;;;1.50;1.17;;;;;;;;;;7390038;19;20011;-79
2023/01/04 15:17:48;;;;;;;2.13;1.38;;;;;;;;;;7384608;19;20006;-75
2023/01/04 15:20:14;;;;;;;2.65;1.50;;;;;;;;;;7389048;19;20013;-76
2023/01/04 15:22:40;;;;;;;1.77;1.27;;;;;;;;;;7384528;19;20071;-75
2023/01/04 15:25:06;;;;;;;2.28;1.30;;;;;;;;;;7389717;19;19994;-75
2023/01/04 15:27:32;;;;;;;1.38;1.27;;;;;;;;;;7386484;19;20005;-73
2023/01/04 15:29:57;;;;;;;1.45;1.13;;;;;;;;;;7387349;19;20070;-74
2023/01/04 15:32:22;;;;;;;3.05;1.50;;;;;;;;;;7386365;19;20003;-72
2023/01/04 15:34:48;;;;;;;1.73;1.30;;;;;;;;;;7279177;19;19994;-75
2023/01/04 15:37:14;;;;;;;1.48;1.27;;;;;;;;;;7386189;19;19991;-74
2023/01/04 15:39:39;;;;;;;1.30;1.20;;;;;;;;;;7383949;19;20452;-73
2023/01/04 15:44:48;;;;;;;2.05;1.10;;;;;;;;;;7385943;19;20027;-72
2023/01/04 15:47:14;;;;;;;1.90;1.30;;;;;;;;;;7387659;19;20002;-73
2023/01/04 15:49:39;;;;;;;2.50;1.13;;;;;;;;;;7380738;19;20008;-73
2023/01/04 15:52:05;;;;;;;1.33;1.23;;;;;;;;;;7387552;19;20366;-74